createdAt,value
2018-12-31T00:02:30.899Z,9.20
2018-12-31T00:04:58.147Z,8.87
2018-12-31T00:07:25.447Z,8.83
2018-12-31T00:09:52.802Z,9.10
2018-12-31T00:12:19.936Z,8.67
2018-12-31T00:14:47.363Z,8.50
2018-12-31T00:17:14.831Z,7.83
2018-12-31T00:19:41.619Z,8.33
2018-12-31T00:22:08.967Z,8.03
2018-12-31T00:24:35.958Z,7.50
2018-12-31T00:27:03.165Z,7.90
2018-12-31T00:29:30.166Z,7.20
2018-12-31T00:31:57.055Z,7.20
2018-12-31T00:34:23.821Z,6.27
2018-12-31T00:36:51.354Z,6.80
2018-12-31T00:39:18.499Z,6.90
2018-12-31T00:41:45.247Z,6.53
2018-12-31T00:44:12.287Z,7.33
2018-12-31T00:46:39.935Z,6.67
2018-12-31T00:49:06.966Z,6.83
2018-12-31T00:51:33.952Z,6.17
2018-12-31T00:54:01.324Z,6.53
2018-12-31T00:56:28.100Z,6.40
2018-12-31T00:58:55.439Z,22.77
2018-12-31T01:01:22.481Z,11.50
2018-12-31T01:03:50.264Z,7.37
2018-12-31T01:06:17.947Z,6.60
2018-12-31T01:08:44.820Z,6.80
2018-12-31T01:11:11.883Z,6.77
2018-12-31T01:13:39.229Z,6.90
2018-12-31T01:16:06.612Z,6.23
2018-12-31T01:18:34.012Z,6.80
2018-12-31T01:21:01.121Z,6.47
2018-12-31T01:23:28.146Z,7.27
2018-12-31T01:25:55.511Z,7.10
2018-12-31T01:28:22.553Z,7.43
2018-12-31T01:30:49.332Z,7.63
2018-12-31T01:33:16.953Z,7.60
2018-12-31T01:35:44.149Z,7.33
2018-12-31T01:38:11.240Z,7.70
2018-12-31T01:40:38.392Z,8.10
2018-12-31T01:43:05.147Z,7.73
2018-12-31T01:45:32.593Z,7.73
2018-12-31T01:47:59.664Z,7.77
2018-12-31T01:50:26.976Z,7.93
2018-12-31T01:52:54.352Z,7.77
2018-12-31T01:55:21.228Z,8.00
2018-12-31T01:57:48.324Z,7.97
2018-12-31T02:00:15.601Z,8.50
2018-12-31T02:02:42.389Z,8.17
2018-12-31T02:05:09.492Z,8.33
2018-12-31T02:07:37.357Z,9.13
2018-12-31T02:10:04.619Z,8.80
2018-12-31T02:12:32.578Z,8.70
2018-12-31T02:14:59.984Z,8.97
2018-12-31T02:17:27.637Z,9.00
2018-12-31T02:19:54.755Z,8.73
2018-12-31T02:22:21.691Z,9.57
2018-12-31T02:24:49.050Z,9.53
2018-12-31T02:27:16.391Z,9.60
2018-12-31T02:29:43.420Z,10.17
2018-12-31T02:32:10.667Z,10.60
2018-12-31T02:34:37.433Z,9.90
2018-12-31T02:37:04.504Z,10.40
2018-12-31T02:39:31.570Z,9.90
2018-12-31T02:41:58.592Z,10.00
2018-12-31T02:44:25.938Z,10.17
2018-12-31T02:46:52.703Z,9.70
2018-12-31T02:49:19.881Z,9.50
2018-12-31T02:51:46.642Z,9.60
2018-12-31T02:54:14.647Z,10.23
2018-12-31T02:56:42.433Z,10.70
2018-12-31T02:59:09.205Z,9.80
2018-12-31T03:01:36.703Z,9.73
2018-12-31T03:04:03.949Z,9.67
2018-12-31T03:06:31.478Z,9.93
2018-12-31T03:08:58.674Z,10.20
2018-12-31T03:11:26.233Z,9.47
2018-12-31T03:13:53.339Z,9.17
2018-12-31T03:16:20.787Z,9.47
2018-12-31T03:18:48.091Z,9.53
2018-12-31T03:21:15.140Z,10.30
2018-12-31T03:23:42.492Z,9.77
2018-12-31T03:26:09.756Z,9.03
2018-12-31T03:28:37.130Z,9.17
2018-12-31T03:31:04.508Z,9.43
2018-12-31T03:33:31.928Z,9.00
2018-12-31T03:35:59.080Z,8.27
2018-12-31T03:38:26.128Z,8.73
2018-12-31T03:40:53.249Z,8.27
2018-12-31T03:43:21.110Z,9.40
2018-12-31T03:45:48.643Z,10.03
2018-12-31T03:48:15.406Z,8.93
2018-12-31T03:50:42.793Z,8.90
2018-12-31T03:53:09.977Z,8.97
2018-12-31T03:55:37.429Z,9.80
2018-12-31T03:58:04.730Z,9.30
2018-12-31T04:00:31.616Z,9.23
2018-12-31T04:02:59.155Z,8.73
2018-12-31T04:05:26.255Z,9.03
2018-12-31T04:07:53.609Z,9.80
2018-12-31T04:10:20.832Z,9.27
2018-12-31T04:12:48.162Z,10.13
2018-12-31T04:15:16.077Z,9.60
2018-12-31T04:17:43.483Z,10.17
2018-12-31T04:20:10.361Z,10.70
2018-12-31T04:22:37.722Z,10.80
2018-12-31T04:25:04.605Z,9.90
2018-12-31T04:27:31.849Z,10.43
2018-12-31T04:29:59.244Z,10.10
2018-12-31T04:32:27.156Z,9.57
2018-12-31T04:34:54.208Z,9.70
2018-12-31T04:37:21.445Z,9.57
2018-12-31T04:39:49.013Z,9.30
2018-12-31T04:42:15.793Z,9.23
2018-12-31T04:44:42.865Z,9.50
2018-12-31T04:47:10.100Z,9.23
2018-12-31T04:49:37.345Z,9.20
2018-12-31T04:52:04.372Z,8.87
2018-12-31T04:54:31.863Z,8.63
2018-12-31T04:56:59.157Z,9.23
2018-12-31T04:59:26.275Z,9.43
2018-12-31T05:01:53.413Z,9.27
2018-12-31T05:04:22.097Z,9.63
2018-12-31T05:06:49.645Z,9.90
2018-12-31T05:09:16.732Z,9.07
2018-12-31T05:11:44.476Z,9.53
2018-12-31T05:14:12.464Z,8.83
2018-12-31T05:16:39.465Z,9.57
2018-12-31T05:19:06.497Z,9.17
2018-12-31T05:21:33.264Z,8.77
2018-12-31T05:24:00.717Z,9.57
2018-12-31T05:26:27.741Z,9.13
2018-12-31T05:28:55.355Z,8.93
2018-12-31T05:31:22.367Z,8.33
2018-12-31T05:33:50.193Z,8.57
2018-12-31T05:36:17.645Z,8.63
2018-12-31T05:38:45.049Z,8.63
2018-12-31T05:41:12.092Z,8.10
2018-12-31T05:43:39.359Z,8.37
2018-12-31T05:46:06.137Z,7.73
2018-12-31T05:48:33.167Z,8.80
2018-12-31T05:50:59.929Z,8.33
2018-12-31T05:53:27.269Z,8.30
2018-12-31T05:55:54.318Z,8.37
2018-12-31T05:58:21.573Z,8.93
2018-12-31T06:00:49.164Z,8.73
2018-12-31T06:03:16.359Z,8.37
2018-12-31T06:05:43.689Z,8.33
2018-12-31T06:08:10.776Z,8.63
2018-12-31T06:10:37.768Z,8.87
2018-12-31T06:13:04.997Z,8.10
2018-12-31T06:15:31.758Z,9.43
2018-12-31T06:17:59.085Z,9.47
2018-12-31T06:20:26.740Z,8.93
2018-12-31T06:22:54.370Z,9.40
2018-12-31T06:25:21.765Z,9.50
2018-12-31T06:27:49.264Z,9.93
2018-12-31T06:30:16.297Z,9.53
2018-12-31T06:32:43.307Z,10.23
2018-12-31T06:35:10.681Z,9.97
2018-12-31T06:37:37.720Z,9.33
2018-12-31T06:40:04.960Z,9.20
2018-12-31T06:42:32.161Z,9.93
2018-12-31T06:44:59.188Z,9.57
2018-12-31T06:47:26.437Z,9.43
2018-12-31T06:49:54.448Z,9.67
2018-12-31T06:52:21.437Z,9.70
2018-12-31T06:54:48.216Z,9.20
2018-12-31T06:57:15.741Z,9.17
2018-12-31T06:59:42.603Z,9.37
2018-12-31T07:02:09.740Z,9.17
2018-12-31T07:04:36.595Z,8.90
2018-12-31T07:07:04.749Z,9.17
2018-12-31T07:09:31.518Z,9.70
2018-12-31T07:11:58.285Z,10.10
2018-12-31T07:14:25.376Z,9.37
2018-12-31T07:16:52.748Z,9.03
2018-12-31T07:19:20.240Z,9.70
2018-12-31T07:21:47.847Z,10.23
2018-12-31T07:24:14.948Z,9.73
2018-12-31T07:26:42.604Z,10.00
2018-12-31T07:29:10.038Z,10.50
2018-12-31T07:31:37.471Z,9.90
2018-12-31T07:34:04.733Z,9.60
2018-12-31T07:36:32.400Z,10.13
2018-12-31T07:38:59.763Z,10.80
2018-12-31T07:41:27.288Z,10.60
2018-12-31T07:43:55.067Z,10.50
2018-12-31T07:46:22.128Z,10.87
2018-12-31T07:48:49.581Z,10.07
2018-12-31T07:51:16.752Z,10.73
2018-12-31T07:53:43.577Z,10.63
2018-12-31T07:56:10.823Z,10.57
2018-12-31T07:58:37.894Z,9.57
2018-12-31T08:01:04.949Z,10.27
2018-12-31T08:03:31.741Z,9.90
2018-12-31T08:05:59.829Z,9.33
2018-12-31T08:08:27.405Z,9.47
2018-12-31T08:10:54.722Z,9.63
2018-12-31T08:13:21.799Z,9.40
2018-12-31T08:15:48.836Z,9.73
2018-12-31T08:18:16.126Z,9.70
2018-12-31T08:20:44.284Z,9.23
2018-12-31T08:23:11.591Z,9.93
2018-12-31T08:25:38.719Z,8.67
2018-12-31T08:28:06.176Z,8.90
2018-12-31T08:30:33.260Z,8.87
2018-12-31T08:33:00.656Z,8.20
2018-12-31T08:35:27.764Z,8.40
2018-12-31T08:37:54.938Z,8.63
2018-12-31T08:40:21.840Z,8.27
2018-12-31T08:42:49.137Z,8.30
2018-12-31T08:45:16.104Z,8.00
2018-12-31T08:47:42.940Z,8.53
2018-12-31T08:50:10.077Z,8.17
2018-12-31T08:52:37.640Z,8.40
2018-12-31T08:55:04.511Z,8.87
2018-12-31T08:57:31.968Z,8.40
2018-12-31T08:59:58.978Z,8.83
2018-12-31T09:02:26.532Z,8.67
2018-12-31T09:04:53.598Z,8.80
2018-12-31T09:07:20.748Z,8.73
2018-12-31T09:09:47.504Z,8.73
2018-12-31T09:12:14.636Z,8.90
2018-12-31T09:14:41.992Z,9.00
2018-12-31T09:17:08.995Z,9.70
2018-12-31T09:19:36.084Z,9.30
2018-12-31T09:22:03.794Z,9.53
2018-12-31T09:24:31.124Z,8.37
2018-12-31T09:26:58.562Z,19.03
2018-12-31T09:29:26.475Z,10.23
2018-12-31T09:31:53.504Z,9.97
2018-12-31T09:34:20.612Z,9.10
2018-12-31T09:36:47.880Z,8.33
2018-12-31T09:39:14.912Z,9.00
2018-12-31T09:41:42.328Z,8.67
2018-12-31T09:44:09.432Z,9.37
2018-12-31T09:46:36.440Z,7.67
2018-12-31T09:49:03.630Z,8.33
2018-12-31T09:51:31.270Z,8.13
2018-12-31T09:53:58.559Z,7.77
2018-12-31T09:56:25.824Z,8.10
2018-12-31T09:58:52.903Z,7.73
2018-12-31T10:01:19.688Z,7.83
2018-12-31T10:03:47.678Z,7.70
2018-12-31T10:06:15.265Z,7.97
2018-12-31T10:08:49.044Z,7.97
2018-12-31T10:11:11.612Z,7.53
2018-12-31T10:13:39.057Z,8.20
2018-12-31T10:16:06.085Z,7.27
2018-12-31T10:18:33.536Z,7.27
2018-12-31T10:21:00.312Z,6.87
2018-12-31T10:23:28.185Z,7.17
2018-12-31T10:25:55.620Z,7.57
2018-12-31T10:28:22.735Z,7.30
2018-12-31T10:30:49.827Z,6.60
2018-12-31T10:33:17.507Z,7.80
2018-12-31T10:35:45.076Z,6.53
2018-12-31T10:38:12.224Z,7.97
2018-12-31T10:40:39.546Z,6.73
2018-12-31T10:43:06.298Z,7.90
2018-12-31T10:45:33.720Z,7.40
2018-12-31T10:48:00.766Z,7.07
2018-12-31T10:50:28.274Z,6.57
2018-12-31T10:52:55.293Z,7.47
2018-12-31T10:55:22.360Z,7.73
2018-12-31T10:57:49.723Z,7.03
2018-12-31T11:00:16.840Z,7.10
2018-12-31T11:02:44.116Z,6.73
2018-12-31T11:05:12.144Z,7.17
2018-12-31T11:07:39.255Z,6.50
2018-12-31T11:10:06.317Z,7.37
2018-12-31T11:12:33.813Z,6.93
2018-12-31T11:15:00.597Z,6.90
2018-12-31T11:17:27.387Z,6.67
2018-12-31T11:19:54.260Z,7.30
2018-12-31T11:22:21.176Z,7.60
2018-12-31T11:24:48.232Z,6.73
2018-12-31T11:27:15.013Z,7.10
2018-12-31T11:29:42.112Z,7.00
2018-12-31T11:32:09.508Z,6.27
2018-12-31T11:34:36.268Z,6.70
2018-12-31T11:37:03.296Z,6.50
2018-12-31T11:39:30.057Z,6.43
2018-12-31T11:41:58.107Z,6.90
2018-12-31T11:44:25.324Z,6.57
2018-12-31T11:46:52.395Z,7.43
2018-12-31T11:49:19.832Z,7.83
2018-12-31T11:51:46.602Z,6.73
2018-12-31T11:54:13.972Z,6.63
2018-12-31T11:56:40.743Z,6.53
2018-12-31T11:59:07.756Z,6.97
2018-12-31T12:01:35.738Z,6.63
2018-12-31T12:04:02.799Z,6.70
2018-12-31T12:06:29.892Z,6.80
2018-12-31T12:08:57.615Z,7.10
2018-12-31T12:11:24.993Z,6.70
2018-12-31T12:13:51.767Z,6.70
2018-12-31T12:16:18.872Z,7.57
2018-12-31T12:18:45.656Z,6.73
2018-12-31T12:21:12.700Z,8.93
2018-12-31T12:23:39.915Z,7.50
2018-12-31T12:26:07.979Z,7.50
2018-12-31T12:28:34.964Z,6.80
2018-12-31T12:31:02.057Z,6.27
2018-12-31T12:33:29.428Z,6.70
2018-12-31T12:35:56.708Z,6.43
2018-12-31T12:38:23.493Z,6.27
2018-12-31T12:40:50.251Z,6.60
2018-12-31T12:43:17.365Z,6.47
2018-12-31T12:45:44.716Z,6.13
2018-12-31T12:48:11.837Z,5.80
2018-12-31T12:50:39.192Z,5.63
2018-12-31T12:53:06.562Z,6.20
2018-12-31T12:55:34.217Z,6.10
2018-12-31T12:58:01.288Z,5.60
2018-12-31T13:00:28.731Z,6.40
2018-12-31T13:02:55.761Z,6.17
2018-12-31T13:05:23.239Z,5.83
2018-12-31T13:07:50.188Z,6.73
2018-12-31T13:10:16.951Z,6.30
2018-12-31T13:12:44.677Z,8.57
2018-12-31T13:15:12.029Z,9.80
2018-12-31T13:17:38.888Z,7.77
2018-12-31T13:20:05.851Z,6.67
2018-12-31T13:22:32.881Z,6.03
2018-12-31T13:24:59.949Z,6.30
2018-12-31T13:27:27.045Z,5.87
2018-12-31T13:29:53.827Z,5.33
2018-12-31T13:32:21.317Z,5.77
2018-12-31T13:34:48.592Z,5.90
2018-12-31T13:37:16.020Z,5.53
2018-12-31T13:39:42.780Z,5.70
2018-12-31T13:42:09.980Z,5.93
2018-12-31T13:44:37.129Z,5.60
2018-12-31T13:47:04.665Z,5.90
2018-12-31T13:49:32.137Z,6.40
2018-12-31T13:51:58.917Z,5.63
2018-12-31T13:54:25.923Z,6.53
2018-12-31T13:56:52.848Z,6.10
2018-12-31T13:59:19.820Z,5.80
2018-12-31T14:01:47.291Z,4.87
2018-12-31T14:04:14.371Z,5.17
2018-12-31T14:06:41.497Z,4.23
2018-12-31T14:09:10.050Z,3.93
2018-12-31T14:11:37.551Z,2.80
2018-12-31T14:14:04.761Z,2.63
2018-12-31T14:16:32.553Z,2.73
2018-12-31T14:18:59.783Z,2.70
2018-12-31T14:21:26.853Z,2.60
2018-12-31T14:23:55.104Z,2.53
2018-12-31T14:26:22.569Z,2.63
2018-12-31T14:28:50.144Z,4.40
2018-12-31T14:31:17.174Z,3.80
2018-12-31T14:33:44.044Z,4.20
2018-12-31T14:36:11.237Z,3.90
2018-12-31T14:38:38.251Z,5.20
2018-12-31T14:41:05.029Z,5.73
2018-12-31T14:43:32.024Z,4.90
2018-12-31T14:45:59.306Z,4.80
2018-12-31T14:48:26.168Z,4.47
2018-12-31T14:50:53.652Z,4.60
2018-12-31T14:53:20.687Z,4.47
2018-12-31T14:55:48.528Z,3.87
2018-12-31T14:58:15.527Z,4.20
2018-12-31T15:00:42.581Z,4.00
2018-12-31T15:03:09.348Z,5.07
2018-12-31T15:05:36.276Z,4.53
2018-12-31T15:08:03.537Z,5.60
2018-12-31T15:10:31.247Z,4.90
2018-12-31T15:12:58.828Z,5.70
2018-12-31T15:15:26.196Z,6.60
2018-12-31T15:17:53.222Z,6.30
2018-12-31T15:20:20.285Z,6.67
2018-12-31T15:22:47.340Z,6.80
2018-12-31T15:25:14.492Z,6.77
2018-12-31T15:27:41.715Z,6.40
2018-12-31T15:30:08.800Z,5.33
2018-12-31T15:32:36.140Z,5.73
2018-12-31T15:35:03.980Z,5.90
2018-12-31T15:37:31.061Z,5.80
2018-12-31T15:39:58.488Z,6.27
2018-12-31T15:42:25.581Z,6.70
2018-12-31T15:44:53.186Z,6.10
2018-12-31T15:47:20.375Z,6.70
2018-12-31T15:49:47.646Z,7.00
2018-12-31T15:52:14.668Z,6.43
2018-12-31T15:54:41.814Z,6.87
2018-12-31T15:57:08.964Z,7.33
2018-12-31T15:59:35.999Z,7.30
2018-12-31T16:02:02.877Z,6.83
2018-12-31T16:04:29.930Z,7.77
2018-12-31T16:06:57.801Z,8.40
2018-12-31T16:09:25.546Z,8.47
2018-12-31T16:11:52.384Z,13.80
2018-12-31T16:14:20.009Z,14.30
2018-12-31T16:16:47.289Z,10.77
2018-12-31T16:19:14.340Z,10.77
2018-12-31T16:21:42.211Z,11.07
2018-12-31T16:24:09.171Z,10.97
2018-12-31T16:26:36.276Z,10.63
2018-12-31T16:29:03.663Z,10.90
2018-12-31T16:31:31.092Z,9.00
2018-12-31T16:33:58.147Z,10.30
2018-12-31T16:36:25.337Z,10.17
2018-12-31T16:38:52.552Z,9.97
2018-12-31T16:41:19.520Z,9.97
2018-12-31T16:43:46.972Z,10.67
2018-12-31T16:46:13.833Z,11.03
2018-12-31T16:48:41.304Z,11.23
2018-12-31T16:51:09.148Z,11.50
2018-12-31T16:53:36.559Z,10.83
2018-12-31T16:56:03.427Z,11.27
2018-12-31T16:58:30.791Z,11.17
2018-12-31T17:01:17.433Z,11.97
2018-12-31T17:03:44.469Z,11.70
2018-12-31T17:06:11.513Z,12.50
2018-12-31T17:08:38.876Z,11.73
2018-12-31T17:11:06.417Z,11.83
2018-12-31T17:13:33.828Z,12.23
2018-12-31T17:16:01.475Z,12.50
2018-12-31T17:18:28.701Z,12.03
2018-12-31T17:20:56.444Z,12.27
2018-12-31T17:23:23.964Z,11.23
2018-12-31T17:25:50.770Z,12.63
2018-12-31T17:28:18.893Z,11.33
2018-12-31T17:30:46.187Z,12.30
2018-12-31T17:33:13.739Z,12.77
2018-12-31T17:35:40.779Z,11.90
2018-12-31T17:38:08.554Z,11.70
2018-12-31T17:40:36.412Z,11.50
2018-12-31T17:43:03.528Z,12.30
2018-12-31T17:45:31.461Z,12.50
2018-12-31T17:47:58.841Z,13.03
2018-12-31T17:50:25.945Z,13.27
2018-12-31T17:52:52.976Z,14.27
2018-12-31T17:55:20.242Z,13.77
2018-12-31T17:57:47.771Z,13.87
2018-12-31T18:00:14.932Z,20.33
2018-12-31T18:02:42.012Z,23.87
2018-12-31T18:05:09.555Z,21.70
2018-12-31T18:07:36.407Z,16.63
2018-12-31T18:10:04.164Z,15.30
2018-12-31T18:12:31.569Z,15.67
2018-12-31T18:14:58.778Z,15.23
2018-12-31T18:17:25.835Z,15.07
2018-12-31T18:19:53.021Z,15.70
2018-12-31T18:22:20.432Z,15.43
2018-12-31T18:24:47.500Z,16.43
2018-12-31T18:27:14.830Z,17.13
2018-12-31T18:29:42.192Z,17.40
2018-12-31T18:32:09.194Z,17.60
2018-12-31T18:34:36.412Z,18.00
2018-12-31T18:37:03.512Z,18.40
2018-12-31T18:39:31.204Z,19.20
2018-12-31T18:41:59.084Z,19.23
2018-12-31T18:44:25.848Z,19.03
2018-12-31T18:46:52.624Z,19.07
2018-12-31T18:49:19.908Z,19.47
2018-12-31T18:51:47.016Z,20.27
2018-12-31T18:54:14.412Z,21.87
2018-12-31T18:56:41.928Z,20.67
2018-12-31T18:59:09.333Z,20.97
2018-12-31T19:01:36.700Z,21.57
2018-12-31T19:04:03.726Z,22.67
2018-12-31T19:06:30.504Z,23.70
2018-12-31T19:08:57.264Z,22.57
2018-12-31T19:11:24.844Z,23.50
2018-12-31T19:13:51.623Z,23.07
2018-12-31T19:16:19.141Z,22.93
2018-12-31T19:18:46.830Z,23.20
2018-12-31T19:21:13.869Z,23.97
2018-12-31T19:23:41.108Z,26.13
2018-12-31T19:26:08.741Z,24.40
2018-12-31T19:28:36.071Z,25.10
2018-12-31T19:31:03.312Z,25.00
2018-12-31T19:33:30.556Z,24.43
2018-12-31T19:35:57.908Z,21.20
2018-12-31T19:38:25.085Z,23.13
2018-12-31T19:40:52.195Z,25.67
2018-12-31T19:43:19.484Z,27.70
2018-12-31T19:45:46.588Z,30.40
2018-12-31T19:48:14.144Z,30.10
2018-12-31T19:50:41.489Z,29.60
2018-12-31T19:53:08.296Z,31.00
2018-12-31T19:55:35.060Z,30.03
2018-12-31T19:58:02.472Z,29.90
2018-12-31T20:00:29.235Z,30.60
2018-12-31T20:02:56.245Z,29.17
2018-12-31T20:05:23.305Z,30.73
2018-12-31T20:07:50.659Z,32.17
2018-12-31T20:10:18.010Z,31.03
2018-12-31T20:12:45.032Z,28.33
2018-12-31T20:15:12.235Z,26.37
2018-12-31T20:17:39.580Z,27.97
2018-12-31T20:20:06.816Z,28.23
2018-12-31T20:22:33.840Z,28.03
2018-12-31T20:25:01.330Z,29.17
2018-12-31T20:27:28.784Z,26.07
2018-12-31T20:29:56.712Z,26.67
2018-12-31T20:32:23.632Z,27.60
2018-12-31T20:34:50.435Z,26.97
2018-12-31T20:37:17.533Z,25.53
2018-12-31T20:39:44.863Z,25.00
2018-12-31T20:42:11.995Z,25.63
2018-12-31T20:44:39.019Z,25.63
2018-12-31T20:47:06.388Z,24.10
2018-12-31T20:49:33.448Z,25.37
2018-12-31T20:52:00.452Z,24.40
2018-12-31T20:54:27.224Z,25.13
2018-12-31T20:56:54.541Z,26.63
2018-12-31T20:59:21.636Z,25.97
2018-12-31T21:01:49.020Z,23.97
2018-12-31T21:04:15.796Z,26.87
2018-12-31T21:06:42.556Z,27.73
2018-12-31T21:09:09.784Z,26.70
2018-12-31T21:11:37.255Z,26.57
2018-12-31T21:14:04.315Z,25.87
2018-12-31T21:16:31.279Z,24.70
2018-12-31T21:18:58.727Z,24.33
2018-12-31T21:21:25.733Z,23.20
2018-12-31T21:23:53.061Z,23.50
2018-12-31T21:26:20.292Z,23.37
2018-12-31T21:28:47.636Z,23.03
2018-12-31T21:31:14.399Z,24.03
2018-12-31T21:33:41.530Z,23.80
2018-12-31T21:36:08.553Z,24.03
2018-12-31T21:38:35.746Z,25.07
2018-12-31T21:41:03.265Z,25.63
2018-12-31T21:43:30.020Z,25.53
2018-12-31T21:45:57.308Z,25.03
2018-12-31T21:48:24.340Z,25.27
2018-12-31T21:50:51.112Z,25.30
2018-12-31T21:53:18.241Z,24.47
2018-12-31T21:55:45.012Z,23.93
2018-12-31T21:58:11.780Z,25.17
2018-12-31T22:00:38.843Z,24.93
2018-12-31T22:03:05.944Z,24.83
2018-12-31T22:05:32.715Z,25.87
2018-12-31T22:07:59.788Z,25.17
2018-12-31T22:10:26.563Z,26.23
2018-12-31T22:12:53.847Z,26.27
2018-12-31T22:15:20.868Z,24.10
2018-12-31T22:17:47.633Z,24.70
2018-12-31T22:20:15.233Z,24.80
2018-12-31T22:22:42.296Z,24.40
2018-12-31T22:25:09.754Z,24.90
2018-12-31T22:27:36.788Z,26.10
2018-12-31T22:30:05.145Z,27.83
2018-12-31T22:32:32.148Z,26.30
2018-12-31T22:34:59.167Z,26.70
2018-12-31T22:37:26.420Z,27.43
2018-12-31T22:39:53.887Z,28.23
2018-12-31T22:42:21.342Z,27.20
2018-12-31T22:44:48.238Z,32.03
2018-12-31T22:47:15.300Z,33.23
2018-12-31T22:49:42.452Z,31.13
2018-12-31T22:52:09.257Z,30.87
2018-12-31T22:54:36.738Z,33.37
2018-12-31T22:57:04.074Z,35.57
2018-12-31T22:59:31.297Z,33.10
2018-12-31T23:01:58.483Z,32.27
2018-12-31T23:04:25.561Z,32.33
2018-12-31T23:06:56.300Z,30.63
2018-12-31T23:09:24.064Z,30.23
2018-12-31T23:11:51.436Z,33.93
2018-12-31T23:14:18.196Z,39.90
2018-12-31T23:16:48.288Z,81.20
2018-12-31T23:19:15.316Z,135.23
2018-12-31T23:21:42.825Z,217.17
2018-12-31T23:24:09.920Z,328.20
2018-12-31T23:26:36.701Z,386.93
2018-12-31T23:29:03.470Z,458.77
2018-12-31T23:31:30.849Z,504.07
2018-12-31T23:33:58.929Z,555.83
2018-12-31T23:36:25.691Z,554.43
2018-12-31T23:38:53.372Z,552.83
2018-12-31T23:41:20.372Z,478.90
2018-12-31T23:43:47.848Z,433.67
2018-12-31T23:46:14.890Z,373.80
2018-12-31T23:48:42.002Z,337.10
2018-12-31T23:51:08.815Z,288.00
2018-12-31T23:53:35.853Z,284.03
2018-12-31T23:56:02.948Z,256.73
2018-12-31T23:58:30.288Z,267.03
